createdAt,value
2022-12-11T00:00:55.714Z,100733.66
2022-12-11T00:03:28.478Z,100741.91
2022-12-11T00:06:01.241Z,100741.38
2022-12-11T00:08:34.306Z,100745.03
2022-12-11T00:11:09.896Z,100748.69
2022-12-11T00:13:43.199Z,100743.75
2022-12-11T00:16:19.540Z,100750.16
2022-12-11T00:18:55.390Z,100742.28
2022-12-11T00:21:28.335Z,100724.44
2022-12-11T00:24:04.514Z,100742.22
2022-12-11T00:26:37.537Z,100740.72
2022-12-11T00:29:14.430Z,100695.53
2022-12-11T00:31:48.621Z,100742.41
2022-12-11T00:34:21.462Z,100747.81
2022-12-11T00:36:54.201Z,100740.63
2022-12-11T00:39:27.224Z,100743.16
2022-12-11T00:41:59.976Z,100712.97
2022-12-11T00:44:32.789Z,100746.63
2022-12-11T00:47:06.890Z,100740.22
2022-12-11T00:49:41.232Z,100748.34
2022-12-11T00:52:17.611Z,100745.53
2022-12-11T00:54:50.362Z,100731.84
2022-12-11T00:57:23.120Z,100738.09
2022-12-11T00:59:55.854Z,100741.63
2022-12-11T01:02:30.402Z,100736.31
2022-12-11T01:05:03.299Z,100708.75
2022-12-11T01:07:36.040Z,100716.81
2022-12-11T01:10:25.108Z,100735.50
2022-12-11T01:13:00.043Z,100734.03
2022-12-11T01:15:39.961Z,100735.88
2022-12-11T01:18:16.070Z,100728.94
2022-12-11T01:20:48.811Z,100733.31
2022-12-11T01:23:21.675Z,100723.00
2022-12-11T01:25:54.530Z,100735.75
2022-12-11T01:28:27.499Z,100741.97
2022-12-11T01:31:00.528Z,100681.50
2022-12-11T01:33:34.715Z,100739.91
2022-12-11T01:36:09.412Z,100746.16
2022-12-11T01:38:42.709Z,100727.53
2022-12-11T01:41:16.247Z,100697.97
2022-12-11T01:44:03.931Z,100737.59
2022-12-11T01:46:38.771Z,100732.59
2022-12-11T01:49:15.082Z,100715.34
2022-12-11T01:51:52.113Z,100727.63
2022-12-11T01:54:26.743Z,100689.03
2022-12-11T01:57:04.597Z,100724.28
2022-12-11T01:59:40.162Z,100718.06
2022-12-11T02:02:19.394Z,100720.22
2022-12-11T02:04:53.551Z,100719.50
2022-12-11T02:07:26.844Z,100722.78
2022-12-11T02:10:02.755Z,100730.81
2022-12-11T02:12:43.128Z,100722.38
2022-12-11T02:15:26.329Z,100723.47
2022-12-11T02:18:08.659Z,100707.16
2022-12-11T02:20:47.121Z,100689.03
2022-12-11T02:23:45.491Z,100704.78
2022-12-11T02:26:32.668Z,100722.38
2022-12-11T02:29:09.989Z,100709.84
2022-12-11T02:31:47.877Z,100724.47
2022-12-11T02:34:26.368Z,100718.00
2022-12-11T02:37:04.841Z,100685.72
2022-12-11T02:39:43.969Z,100711.16
2022-12-11T02:42:17.292Z,100716.22
2022-12-11T02:44:53.637Z,100714.13
2022-12-11T02:47:29.078Z,100711.50
2022-12-11T02:50:04.792Z,100706.16
2022-12-11T02:52:40.381Z,100688.91
2022-12-11T02:55:16.034Z,100670.13
2022-12-11T02:57:52.711Z,100678.16
2022-12-11T03:00:26.869Z,100689.25
2022-12-11T03:03:00.165Z,100700.53
2022-12-11T03:05:33.311Z,100704.78
2022-12-11T03:08:06.586Z,100700.91
2022-12-11T03:10:39.594Z,100700.38
2022-12-11T03:13:14.478Z,100693.41
2022-12-11T03:16:01.722Z,100679.84
2022-12-11T03:18:40.248Z,100660.84
2022-12-11T03:21:19.848Z,100693.81
2022-12-11T03:24:02.884Z,100686.91
2022-12-11T03:26:41.123Z,100700.28
2022-12-11T03:29:18.996Z,100695.38
2022-12-11T03:31:57.663Z,100694.25
2022-12-11T03:34:37.260Z,100690.19
2022-12-11T03:37:11.611Z,100699.50
2022-12-11T03:39:48.572Z,100706.53
2022-12-11T03:42:26.655Z,100699.97
2022-12-11T03:45:00.984Z,100706.84
2022-12-11T03:47:35.955Z,100707.38
2022-12-11T03:50:11.936Z,100699.06
2022-12-11T03:52:47.250Z,100699.91
2022-12-11T03:55:22.526Z,100696.03
2022-12-11T03:57:55.334Z,100697.59
2022-12-11T04:00:28.997Z,100695.44
2022-12-11T04:03:15.738Z,100690.53
2022-12-11T04:05:50.642Z,100694.25
2022-12-11T04:08:24.161Z,100688.31
2022-12-11T04:11:10.871Z,100680.44
2022-12-11T04:13:43.711Z,100650.59
2022-12-11T04:16:15.569Z,100684.63
2022-12-11T04:19:07.376Z,100698.59
2022-12-11T04:21:57.539Z,100684.69
2022-12-11T04:24:30.338Z,100685.69
2022-12-11T04:27:03.213Z,100700.28
2022-12-11T04:29:35.980Z,100695.97
2022-12-11T04:32:09.057Z,100676.59
2022-12-11T04:34:43.151Z,100696.44
2022-12-11T04:37:15.910Z,100690.84
2022-12-11T04:39:48.789Z,100692.25
2022-12-11T04:42:22.448Z,100662.84
2022-12-11T04:44:55.194Z,100695.72
2022-12-11T04:47:28.430Z,100683.97
2022-12-11T04:50:02.825Z,100688.88
2022-12-11T04:52:35.708Z,100679.34
2022-12-11T04:55:10.062Z,100687.66
2022-12-11T04:57:43.335Z,100682.41
2022-12-11T05:00:17.189Z,100673.69
2022-12-11T05:02:49.987Z,100670.13
2022-12-11T05:05:24.493Z,100671.88
2022-12-11T05:07:57.352Z,100671.03
2022-12-11T05:10:32.874Z,100665.88
2022-12-11T05:13:05.672Z,100671.97
2022-12-11T05:15:40.073Z,100662.53
2022-12-11T05:18:13.443Z,100667.66
2022-12-11T05:20:56.379Z,100673.84
2022-12-11T05:23:30.329Z,100681.53
2022-12-11T05:26:05.168Z,100666.72
2022-12-11T05:28:39.828Z,100673.44
2022-12-11T05:31:15.798Z,100675.38
2022-12-11T05:33:50.763Z,100677.16
2022-12-11T05:36:25.634Z,100672.75
2022-12-11T05:38:59.871Z,100655.06
2022-12-11T05:41:33.748Z,100636.03
2022-12-11T05:44:06.651Z,100672.44
2022-12-11T05:46:40.546Z,100671.78
2022-12-11T05:49:13.363Z,100674.41
2022-12-11T05:51:47.601Z,100675.00
2022-12-11T05:54:20.353Z,100664.63
2022-12-11T05:56:53.241Z,100670.53
2022-12-11T05:59:26.192Z,100673.22
2022-12-11T06:01:59.252Z,100658.59
2022-12-11T06:04:32.195Z,100645.19
2022-12-11T06:07:06.505Z,100673.28
2022-12-11T06:09:39.818Z,100668.75
2022-12-11T06:12:12.725Z,100632.81
2022-12-11T06:14:45.994Z,100665.22
2022-12-11T06:17:19.153Z,100653.84
2022-12-11T06:19:52.171Z,100646.16
2022-12-11T06:22:26.495Z,100642.81
2022-12-11T06:24:59.264Z,100650.38
2022-12-11T06:27:32.069Z,100649.38
2022-12-11T06:30:06.369Z,100647.66
2022-12-11T06:32:39.190Z,100628.25
2022-12-11T06:35:13.136Z,100577.97
2022-12-11T06:37:47.539Z,100638.63
2022-12-11T06:40:20.708Z,100619.00
2022-12-11T06:42:55.132Z,100642.69
2022-12-11T06:45:27.953Z,100657.25
2022-12-11T06:48:00.849Z,100648.59
2022-12-11T06:50:33.607Z,100646.88
2022-12-11T06:53:07.744Z,100652.00
2022-12-11T06:55:41.584Z,100652.78
2022-12-11T06:58:14.337Z,100650.03
2022-12-11T07:00:47.534Z,100662.75
2022-12-11T07:03:20.375Z,100652.56
2022-12-11T07:05:53.198Z,100655.28
2022-12-11T07:08:28.675Z,100651.41
2022-12-11T07:11:04.725Z,100660.94
2022-12-11T07:13:38.175Z,100652.16
2022-12-11T07:16:12.810Z,100655.53
2022-12-11T07:18:48.923Z,100672.88
2022-12-11T07:21:22.248Z,100664.09
2022-12-11T07:23:56.416Z,100668.50
2022-12-11T07:26:29.284Z,100634.28
2022-12-11T07:29:02.355Z,100659.25
2022-12-11T07:31:36.106Z,100603.88
2022-12-11T07:34:09.122Z,100657.50
2022-12-11T07:36:42.151Z,100655.28
2022-12-11T07:39:16.746Z,100663.16
2022-12-11T07:41:49.537Z,100621.31
2022-12-11T07:44:24.828Z,100654.53
2022-12-11T07:46:57.635Z,100662.25
2022-12-11T07:49:30.876Z,100667.34
2022-12-11T07:52:03.832Z,100669.19
2022-12-11T07:54:37.990Z,100657.09
2022-12-11T07:57:14.215Z,100659.03
2022-12-11T07:59:47.827Z,100662.25
2022-12-11T08:02:21.949Z,100683.25
2022-12-11T08:04:54.761Z,100665.22
2022-12-11T08:07:27.746Z,100674.59
2022-12-11T08:10:01.857Z,100668.28
2022-12-11T08:12:34.909Z,100674.44
2022-12-11T08:15:09.537Z,100655.63
2022-12-11T08:17:42.515Z,100674.31
2022-12-11T08:20:15.301Z,100668.06
2022-12-11T08:22:48.027Z,100669.03
2022-12-11T08:25:22.139Z,100669.91
2022-12-11T08:27:54.891Z,100668.84
2022-12-11T08:30:27.791Z,100672.59
2022-12-11T08:33:00.955Z,100678.59
2022-12-11T08:35:34.106Z,100671.56
2022-12-11T08:38:07.022Z,100658.53
2022-12-11T08:40:41.149Z,100675.81
2022-12-11T08:43:13.907Z,100670.56
2022-12-11T08:45:47.481Z,100646.81
2022-12-11T08:48:20.375Z,100677.44
2022-12-11T08:50:53.272Z,100661.59
2022-12-11T08:53:28.240Z,100668.59
2022-12-11T08:56:06.069Z,100667.06
2022-12-11T08:58:38.855Z,100664.22
2022-12-11T09:01:13.576Z,100665.22
2022-12-11T09:03:46.375Z,100672.91
2022-12-11T09:06:21.206Z,100663.25
2022-12-11T09:08:55.972Z,100628.28
2022-12-11T09:11:32.866Z,100664.03
2022-12-11T09:14:07.957Z,100659.69
2022-12-11T09:16:41.373Z,100666.56
2022-12-11T09:19:18.596Z,100663.88
2022-12-11T09:21:51.340Z,100663.09
2022-12-11T09:24:24.111Z,100661.13
2022-12-11T09:26:58.247Z,100649.03
2022-12-11T09:29:31.267Z,100660.19
2022-12-11T09:32:06.363Z,100648.03
2022-12-11T09:34:39.146Z,100669.06
2022-12-11T09:37:11.923Z,100675.03
2022-12-11T09:39:44.667Z,100667.94
2022-12-11T09:42:26.371Z,100664.44
2022-12-11T09:45:02.688Z,100655.72
2022-12-11T09:47:39.140Z,100662.53
2022-12-11T09:50:18.367Z,100643.66
2022-12-11T09:53:09.360Z,100661.63
2022-12-11T09:55:52.587Z,100651.22
2022-12-11T09:58:38.907Z,100655.72
2022-12-11T10:01:19.012Z,100656.38
2022-12-11T10:04:10.762Z,100658.00
2022-12-11T10:06:50.005Z,100625.53
2022-12-11T10:09:31.619Z,100655.28
2022-12-11T10:12:16.096Z,100646.47
2022-12-11T10:15:07.236Z,100655.97
2022-12-11T10:17:41.604Z,100608.97
2022-12-11T10:20:24.221Z,100643.91
2022-12-11T10:22:57.976Z,100648.03
2022-12-11T10:25:33.609Z,100634.81
2022-12-11T10:28:16.926Z,100630.69
2022-12-11T10:31:01.322Z,100628.13
2022-12-11T10:33:42.463Z,100632.28
2022-12-11T10:36:21.792Z,100630.97
2022-12-11T10:38:55.371Z,100595.19
2022-12-11T10:41:37.722Z,100632.41
2022-12-11T10:44:18.584Z,100625.44
2022-12-11T10:47:05.953Z,100616.00
2022-12-11T10:49:40.610Z,100626.84
2022-12-11T10:52:21.029Z,100625.31
2022-12-11T10:55:01.257Z,100571.34
2022-12-11T10:57:37.093Z,100615.56
2022-12-11T11:00:31.174Z,100619.72
2022-12-11T11:03:09.127Z,100619.88
2022-12-11T11:05:47.764Z,100620.44
2022-12-11T11:08:23.659Z,100609.81
2022-12-11T11:11:00.464Z,100624.31
2022-12-11T11:13:33.480Z,100625.59
2022-12-11T11:16:09.697Z,100629.84
2022-12-11T11:18:51.983Z,100628.50
2022-12-11T11:21:26.908Z,100624.16
2022-12-11T11:23:59.687Z,100626.22
2022-12-11T11:27:11.087Z,100612.72
2022-12-11T11:29:31.383Z,100563.75
2022-12-11T11:32:17.391Z,100590.38
2022-12-11T11:34:51.588Z,100609.59
2022-12-11T11:37:31.163Z,100615.63
2022-12-11T11:40:12.847Z,100617.22
2022-12-11T11:42:53.040Z,100606.69
2022-12-11T11:45:30.497Z,100605.13
2022-12-11T11:48:12.129Z,100603.84
2022-12-11T11:50:50.355Z,100601.59
2022-12-11T11:53:30.178Z,100604.84
2022-12-11T11:56:08.191Z,100607.53
2022-12-11T11:58:45.595Z,100561.94
2022-12-11T12:01:20.994Z,100607.13
2022-12-11T12:03:53.994Z,100603.72
2022-12-11T12:06:46.041Z,100558.69
2022-12-11T12:09:35.355Z,100601.78
2022-12-11T12:12:20.952Z,100594.88
2022-12-11T12:15:11.495Z,100547.31
2022-12-11T12:17:55.691Z,100594.25
2022-12-11T12:20:37.739Z,100559.94
2022-12-11T12:23:36.870Z,100599.00
2022-12-11T12:26:16.369Z,100593.28
2022-12-11T12:28:59.031Z,100587.69
2022-12-11T12:31:48.212Z,100589.19
2022-12-11T12:34:32.932Z,100588.34
2022-12-11T12:37:14.469Z,100565.00
2022-12-11T12:40:02.368Z,100555.13
2022-12-11T12:42:43.867Z,100576.56
2022-12-11T12:45:26.834Z,100582.75
2022-12-11T12:47:59.642Z,100572.84
2022-12-11T12:50:39.666Z,100577.66
2022-12-11T12:53:17.107Z,100583.94
2022-12-11T12:55:51.900Z,100579.69
2022-12-11T12:58:30.561Z,100542.19
2022-12-11T13:01:10.439Z,100577.34
2022-12-11T13:03:52.704Z,100577.09
2022-12-11T13:06:38.025Z,100538.91
2022-12-11T13:09:15.975Z,100583.06
2022-12-11T13:11:53.832Z,100581.06
2022-12-11T13:14:31.554Z,100569.16
2022-12-11T13:17:25.103Z,100579.53
2022-12-11T13:20:15.410Z,100571.00
2022-12-11T13:22:52.329Z,100571.56
2022-12-11T13:25:29.066Z,100577.09
2022-12-11T13:28:23.201Z,100536.78
2022-12-11T13:31:03.887Z,100569.16
2022-12-11T13:33:44.029Z,100575.81
2022-12-11T13:36:28.712Z,100574.75
2022-12-11T13:39:05.639Z,100568.84
2022-12-11T13:41:39.960Z,100564.09
2022-12-11T13:44:21.384Z,100572.16
2022-12-11T13:46:56.873Z,100573.56
2022-12-11T13:49:34.881Z,100572.63
2022-12-11T13:52:08.360Z,100577.66
2022-12-11T13:54:49.017Z,100574.69
2022-12-11T13:57:25.655Z,100587.84
2022-12-11T14:00:00.503Z,100588.34
2022-12-11T14:02:38.303Z,100579.88
2022-12-11T14:05:15.411Z,100578.97
2022-12-11T14:07:50.794Z,100584.28
2022-12-11T14:10:26.113Z,100574.38
2022-12-11T14:13:03.495Z,100576.84
2022-12-11T14:15:38.317Z,100578.53
2022-12-11T14:18:19.092Z,100582.25
2022-12-11T14:20:56.311Z,100564.91
2022-12-11T14:23:31.615Z,100577.53
2022-12-11T14:26:06.485Z,100581.94
2022-12-11T14:28:42.672Z,100594.66
2022-12-11T14:31:19.663Z,100589.28
2022-12-11T14:33:57.223Z,100561.22
2022-12-11T14:36:31.904Z,100580.13
2022-12-11T14:39:09.556Z,100586.28
2022-12-11T14:41:48.208Z,100581.41
2022-12-11T14:44:23.769Z,100588.91
2022-12-11T14:47:03.253Z,100593.31
2022-12-11T14:49:43.684Z,100595.09
2022-12-11T14:52:19.502Z,100593.88
2022-12-11T14:54:56.837Z,100595.03
2022-12-11T14:57:32.099Z,100595.41
2022-12-11T15:00:06.160Z,100602.28
2022-12-11T15:02:41.423Z,100604.69
2022-12-11T15:05:18.004Z,100609.75
2022-12-11T15:08:00.989Z,100604.69
2022-12-11T15:10:37.709Z,100612.66
2022-12-11T15:13:11.192Z,100608.25
2022-12-11T15:15:47.011Z,100586.72
2022-12-11T15:18:24.994Z,100612.09
2022-12-11T15:21:00.984Z,100618.25
2022-12-11T15:23:51.790Z,100611.94
2022-12-11T15:26:35.525Z,100616.47
2022-12-11T15:29:26.073Z,100613.72
2022-12-11T15:32:18.523Z,100610.16
2022-12-11T15:34:54.603Z,100585.53
2022-12-11T15:37:31.498Z,100605.84
2022-12-11T15:40:06.304Z,100617.13
2022-12-11T15:42:42.440Z,100623.31
2022-12-11T15:45:18.819Z,100620.88
2022-12-11T15:47:53.243Z,100608.06
2022-12-11T15:50:29.125Z,100612.66
2022-12-11T15:53:01.890Z,100618.34
2022-12-11T15:55:35.371Z,100600.09
2022-12-11T15:58:13.390Z,100611.09
2022-12-11T16:00:47.630Z,100620.25
2022-12-11T16:03:22.963Z,100607.91
2022-12-11T16:05:57.228Z,100610.09
2022-12-11T16:08:30.039Z,100606.69
2022-12-11T16:11:02.810Z,100616.56
2022-12-11T16:13:35.573Z,100605.13
2022-12-11T16:16:08.917Z,100603.28
2022-12-11T16:18:41.987Z,100612.81
2022-12-11T16:21:21.180Z,100611.09
2022-12-11T16:23:54.467Z,100611.78
2022-12-11T16:26:27.455Z,100533.25
2022-12-11T16:29:00.486Z,100576.72
2022-12-11T16:31:33.389Z,100609.31
2022-12-11T16:34:06.386Z,100603.84
2022-12-11T16:36:40.601Z,100602.28
2022-12-11T16:39:14.012Z,100605.75
2022-12-11T16:41:49.081Z,100586.88
2022-12-11T16:44:24.353Z,100611.78
2022-12-11T16:46:59.191Z,100602.28
2022-12-11T16:49:32.087Z,100582.19
2022-12-11T16:52:06.275Z,100595.19
2022-12-11T16:54:39.169Z,100576.03
2022-12-11T16:57:11.936Z,100606.84
2022-12-11T16:59:44.739Z,100601.72
2022-12-11T17:02:18.158Z,100597.47
2022-12-11T17:04:54.054Z,100587.50
2022-12-11T17:07:28.824Z,100604.69
2022-12-11T17:10:03.151Z,100609.88
2022-12-11T17:12:35.947Z,100608.13
2022-12-11T17:15:10.145Z,100606.84
2022-12-11T17:17:43.218Z,100586.38
2022-12-11T17:20:16.003Z,100606.19
2022-12-11T17:22:50.143Z,100598.91
2022-12-11T17:25:23.130Z,100613.16
2022-12-11T17:27:56.345Z,100607.41
2022-12-11T17:30:29.157Z,100618.22
2022-12-11T17:33:03.038Z,100586.97
2022-12-11T17:35:36.045Z,100612.81
2022-12-11T17:38:10.179Z,100613.66
2022-12-11T17:40:44.130Z,100612.94
2022-12-11T17:43:16.900Z,100599.16
2022-12-11T17:45:52.609Z,100616.38
2022-12-11T17:48:25.583Z,100616.22
2022-12-11T17:50:58.603Z,100623.59
2022-12-11T17:53:33.367Z,100611.22
2022-12-11T17:56:09.322Z,100575.78
2022-12-11T17:58:42.122Z,100612.94
2022-12-11T18:01:15.019Z,100610.97
2022-12-11T18:03:48.350Z,100617.22
2022-12-11T18:06:22.941Z,100614.09
2022-12-11T18:08:58.638Z,100606.47
2022-12-11T18:11:31.707Z,100610.25
2022-12-11T18:14:04.499Z,100606.69
2022-12-11T18:16:39.069Z,100610.16
2022-12-11T18:19:11.868Z,100596.28
2022-12-11T18:21:47.038Z,100617.91
2022-12-11T18:24:21.764Z,100613.66
2022-12-11T18:26:54.500Z,100606.97
2022-12-11T18:29:27.276Z,100607.69
2022-12-11T18:32:00.177Z,100608.53
2022-12-11T18:34:33.397Z,100602.44
2022-12-11T18:37:06.946Z,100611.94
2022-12-11T18:39:41.811Z,100605.84
2022-12-11T18:45:09.306Z,100585.09
2022-12-11T18:47:43.738Z,100587.22
2022-12-11T18:50:16.480Z,100613.50
2022-12-11T18:52:53.968Z,100608.41
2022-12-11T18:55:28.299Z,100590.69
2022-12-11T18:58:01.438Z,100598.03
2022-12-11T19:00:34.460Z,100611.66
2022-12-11T19:03:08.495Z,100598.97
2022-12-11T19:05:43.761Z,100615.34
2022-12-11T19:08:16.873Z,100616.28
2022-12-11T19:10:51.073Z,100615.34
2022-12-11T19:13:23.868Z,100627.00
2022-12-11T19:15:56.764Z,100622.75
2022-12-11T19:18:29.598Z,100623.81
2022-12-11T19:21:08.907Z,100624.44
2022-12-11T19:23:43.325Z,100633.75
2022-12-11T19:26:19.340Z,100629.16
2022-12-11T19:28:52.694Z,100579.13
2022-12-11T19:31:25.528Z,100617.22
2022-12-11T19:33:58.999Z,100594.03
2022-12-11T19:36:33.521Z,100585.38
2022-12-11T19:39:12.569Z,100614.34
2022-12-11T19:41:47.837Z,100627.38
2022-12-11T19:44:20.621Z,100629.16
2022-12-11T19:46:53.527Z,100625.25
2022-12-11T19:49:26.327Z,100616.13
2022-12-11T19:51:59.111Z,100621.19
2022-12-11T19:54:32.276Z,100633.25
2022-12-11T19:57:06.450Z,100627.41
2022-12-11T19:59:40.525Z,100636.63
2022-12-11T20:02:14.065Z,100634.84
2022-12-11T20:04:47.233Z,100607.25
2022-12-11T20:07:22.254Z,100633.25
2022-12-11T20:10:00.020Z,100619.19
2022-12-11T20:12:34.043Z,100634.53
2022-12-11T20:15:07.567Z,100630.00
2022-12-11T20:17:43.829Z,100595.63
2022-12-11T20:20:16.754Z,100632.81
2022-12-11T20:22:52.465Z,100550.19
2022-12-11T20:25:26.435Z,100630.63
2022-12-11T20:28:00.681Z,100623.81
2022-12-11T20:30:34.329Z,100555.22
2022-12-11T20:33:07.131Z,100625.25
2022-12-11T20:35:43.654Z,100600.88
2022-12-11T20:38:16.416Z,100621.03
2022-12-11T20:40:49.194Z,100610.97
2022-12-11T20:43:23.285Z,100625.44
2022-12-11T20:45:56.146Z,100620.03
2022-12-11T20:48:29.650Z,100616.47
2022-12-11T20:51:03.418Z,100620.88
2022-12-11T20:53:36.813Z,100618.25
2022-12-11T20:56:11.463Z,100616.88
2022-12-11T20:58:46.441Z,100597.03
2022-12-11T21:01:20.834Z,100617.47
2022-12-11T21:03:56.317Z,100579.44
2022-12-11T21:06:31.672Z,100618.75
2022-12-11T21:09:08.312Z,100615.28
2022-12-11T21:11:41.479Z,100609.84
2022-12-11T21:14:16.402Z,100610.53
2022-12-11T21:16:49.022Z,100608.66
2022-12-11T21:19:22.607Z,100612.81
2022-12-11T21:21:56.141Z,100610.38
2022-12-11T21:24:30.021Z,100571.47
2022-12-11T21:27:02.853Z,100621.53
2022-12-11T21:29:37.472Z,100628.16
2022-12-11T21:32:10.298Z,100592.00
2022-12-11T21:34:43.528Z,100615.78
2022-12-11T21:37:16.295Z,100616.22
2022-12-11T21:39:49.064Z,100619.41
2022-12-11T21:42:22.068Z,100621.03
2022-12-11T21:45:51.808Z,100618.50
2022-12-11T21:47:50.079Z,100612.22
2022-12-11T21:50:22.867Z,100610.69
2022-12-11T21:52:55.874Z,100613.38
2022-12-11T21:55:29.562Z,100587.09
2022-12-11T21:58:04.641Z,100604.44
2022-12-11T22:00:39.670Z,100609.09
2022-12-11T22:03:13.288Z,100623.66
2022-12-11T22:05:47.030Z,100628.00
2022-12-11T22:08:19.888Z,100626.16
2022-12-11T22:10:53.123Z,100632.97
2022-12-11T22:13:26.077Z,100634.53
2022-12-11T22:16:00.256Z,100628.34
2022-12-11T22:18:33.237Z,100632.63
2022-12-11T22:21:06.513Z,100630.69
2022-12-11T22:23:40.492Z,100640.28
2022-12-11T22:26:17.087Z,100639.59
2022-12-11T22:28:50.490Z,100629.28
2022-12-11T22:31:27.047Z,100644.34
2022-12-11T22:34:00.803Z,100648.75
2022-12-11T22:36:33.564Z,100647.69
2022-12-11T22:39:06.465Z,100644.19
2022-12-11T22:41:42.109Z,100640.78
2022-12-11T22:44:17.552Z,100645.75
2022-12-11T22:46:51.889Z,100644.19
2022-12-11T22:49:24.691Z,100646.47
2022-12-11T22:51:58.412Z,100643.06
2022-12-11T22:54:31.217Z,100643.69
2022-12-11T22:57:04.576Z,100639.22
2022-12-11T22:59:37.770Z,100636.06
2022-12-11T23:02:11.903Z,100637.44
2022-12-11T23:04:44.679Z,100632.13
2022-12-11T23:07:17.448Z,100643.41
2022-12-11T23:09:50.263Z,100629.41
2022-12-11T23:12:23.557Z,100651.56
2022-12-11T23:14:57.046Z,100651.06
2022-12-11T23:17:31.876Z,100649.25
2022-12-11T23:20:05.890Z,100618.75
2022-12-11T23:22:38.653Z,100654.44
2022-12-11T23:25:13.986Z,100656.22
2022-12-11T23:27:46.959Z,100654.34
2022-12-11T23:30:19.787Z,100659.44
2022-12-11T23:32:53.907Z,100632.13
2022-12-11T23:35:26.687Z,100651.03
2022-12-11T23:37:59.427Z,100644.94
2022-12-11T23:40:32.770Z,100655.97
2022-12-11T23:43:05.541Z,100659.25
2022-12-11T23:45:38.372Z,100627.56
2022-12-11T23:48:12.918Z,100656.41
2022-12-11T23:50:46.572Z,100657.59
2022-12-11T23:53:19.746Z,100642.50
2022-12-11T23:55:52.501Z,100644.78
2022-12-11T23:58:25.252Z,100652.56
